createdAt,value
2018-03-03T00:00:05.692Z,43.70
2018-03-03T00:01:11.194Z,41.30
2018-03-03T00:02:16.702Z,41.90
2018-03-03T00:03:22.205Z,43.30
2018-03-03T00:04:27.706Z,42.70
2018-03-03T00:05:33.222Z,41.90
2018-03-03T00:06:38.709Z,42.60
2018-03-03T00:07:44.228Z,43.90
2018-03-03T00:08:49.731Z,43.00
2018-03-03T00:09:55.224Z,43.80
2018-03-03T00:11:00.731Z,42.40
2018-03-03T00:12:06.366Z,44.70
2018-03-03T00:13:11.736Z,43.80
2018-03-03T00:14:17.239Z,44.10
2018-03-03T00:15:22.745Z,44.90
2018-03-03T00:16:28.263Z,43.80
2018-03-03T00:17:33.750Z,44.20
2018-03-03T00:18:39.260Z,43.80
2018-03-03T00:19:44.758Z,43.90
2018-03-03T00:20:50.266Z,45.00
2018-03-03T00:21:55.773Z,44.10
2018-03-03T00:23:01.272Z,43.40
2018-03-03T00:24:06.792Z,44.30
2018-03-03T00:25:12.290Z,43.80
2018-03-03T00:26:17.785Z,44.30
2018-03-03T00:27:23.293Z,44.10
2018-03-03T00:28:29.308Z,45.40
2018-03-03T00:29:34.302Z,43.70
2018-03-03T00:30:39.808Z,44.60
2018-03-03T00:31:45.308Z,45.00
2018-03-03T00:32:50.810Z,44.80
2018-03-03T00:33:56.317Z,44.00
2018-03-03T00:35:01.823Z,44.50
2018-03-03T00:36:07.325Z,43.80
2018-03-03T00:37:12.836Z,44.60
2018-03-03T00:38:18.335Z,44.90
2018-03-03T00:39:23.827Z,44.30
2018-03-03T00:40:29.331Z,44.90
2018-03-03T00:41:34.838Z,45.00
2018-03-03T00:42:40.341Z,45.30
2018-03-03T00:43:45.853Z,46.10
2018-03-03T00:44:51.356Z,44.60
2018-03-03T00:45:56.852Z,44.60
2018-03-03T00:47:02.354Z,44.40
2018-03-03T00:48:07.868Z,45.20
2018-03-03T00:49:13.375Z,44.80
2018-03-03T00:50:18.868Z,45.20
2018-03-03T00:51:24.378Z,44.70
2018-03-03T00:52:29.886Z,45.50
2018-03-03T00:53:35.383Z,45.60
2018-03-03T00:54:40.898Z,45.00
2018-03-03T00:55:46.413Z,46.30
2018-03-03T00:56:51.894Z,45.50
2018-03-03T00:57:57.390Z,45.50
2018-03-03T00:59:02.906Z,46.40
2018-03-03T01:00:08.400Z,46.70
2018-03-03T01:01:13.905Z,46.80
2018-03-03T01:02:20.317Z,45.90
2018-03-03T01:03:24.920Z,47.80
2018-03-03T01:04:30.416Z,47.60
2018-03-03T01:05:35.921Z,46.20
2018-03-03T01:06:41.425Z,46.60
2018-03-03T01:07:46.936Z,45.60
2018-03-03T01:08:52.427Z,45.40
2018-03-03T01:09:57.943Z,47.70
2018-03-03T01:11:03.442Z,48.20
2018-03-03T01:12:08.935Z,47.00
2018-03-03T01:13:14.455Z,47.70
2018-03-03T01:14:19.950Z,48.20
2018-03-03T01:15:25.452Z,48.30
2018-03-03T01:16:31.019Z,48.30
2018-03-03T01:17:36.453Z,48.20
2018-03-03T01:18:42.818Z,48.10
2018-03-03T01:19:47.464Z,49.30
2018-03-03T01:20:52.971Z,48.70
2018-03-03T01:21:58.473Z,47.70
2018-03-03T01:23:03.980Z,50.00
2018-03-03T01:24:09.483Z,47.90
2018-03-03T01:25:14.982Z,48.40
2018-03-03T01:26:20.490Z,47.60
2018-03-03T01:27:25.985Z,47.60
2018-03-03T01:28:31.494Z,48.00
2018-03-03T01:29:36.993Z,49.00
2018-03-03T01:30:42.499Z,48.80
2018-03-03T01:31:48.007Z,48.70
2018-03-03T01:32:53.505Z,48.60
2018-03-03T01:33:59.020Z,49.60
2018-03-03T01:35:04.513Z,48.60
2018-03-03T01:36:10.016Z,49.20
2018-03-03T01:37:15.519Z,48.70
2018-03-03T01:38:21.020Z,50.70
2018-03-03T01:39:26.523Z,48.60
2018-03-03T01:40:32.024Z,49.90
2018-03-03T01:41:37.532Z,49.50
2018-03-03T01:42:43.028Z,50.70
2018-03-03T01:43:48.537Z,49.90
2018-03-03T01:44:54.038Z,50.80
2018-03-03T01:45:59.540Z,50.90
2018-03-03T01:47:05.045Z,50.20
2018-03-03T01:48:11.333Z,50.10
2018-03-03T01:49:16.045Z,49.60
2018-03-03T01:50:21.548Z,51.90
2018-03-03T01:51:27.054Z,49.80
2018-03-03T01:52:32.559Z,49.10
2018-03-03T01:53:38.068Z,50.50
2018-03-03T01:54:43.567Z,49.90
2018-03-03T01:55:49.063Z,51.30
2018-03-03T01:56:54.573Z,50.60
2018-03-03T01:58:00.071Z,50.60
2018-03-03T01:59:05.576Z,51.30
2018-03-03T02:00:11.074Z,51.50
2018-03-03T02:01:16.579Z,51.90
2018-03-03T02:02:22.081Z,51.20
2018-03-03T02:03:27.584Z,49.50
2018-03-03T02:04:33.085Z,51.20
2018-03-03T02:05:38.586Z,51.20
2018-03-03T02:06:44.088Z,49.70
2018-03-03T02:07:49.592Z,50.10
2018-03-03T02:08:55.095Z,50.50
2018-03-03T02:10:00.606Z,50.90
2018-03-03T02:11:06.101Z,50.80
2018-03-03T02:12:11.600Z,49.20
2018-03-03T02:13:17.099Z,51.10
2018-03-03T02:14:22.612Z,49.90
2018-03-03T02:16:33.717Z,50.90
2018-03-03T02:17:39.226Z,51.10
2018-03-03T02:18:44.717Z,51.10
2018-03-03T02:19:50.223Z,49.40
2018-03-03T02:20:55.727Z,50.00
2018-03-03T02:22:01.229Z,50.50
2018-03-03T02:23:07.745Z,50.40
2018-03-03T02:24:12.240Z,50.20
2018-03-03T02:25:17.790Z,51.10
2018-03-03T02:26:23.251Z,49.60
2018-03-03T02:27:28.748Z,49.80
2018-03-03T02:28:34.251Z,50.90
2018-03-03T02:29:40.798Z,51.20
2018-03-03T02:30:45.249Z,49.80
2018-03-03T02:31:50.749Z,51.40
2018-03-03T02:32:56.250Z,50.90
2018-03-03T02:34:01.754Z,51.50
2018-03-03T02:35:07.264Z,50.00
2018-03-03T02:36:13.766Z,51.00
2018-03-03T02:37:18.259Z,51.50
2018-03-03T02:38:23.762Z,52.40
2018-03-03T02:39:29.271Z,51.80
2018-03-03T02:40:34.774Z,51.90
2018-03-03T02:41:40.276Z,53.30
2018-03-03T02:42:46.786Z,53.30
2018-03-03T02:43:51.284Z,52.10
2018-03-03T02:44:56.783Z,52.50
2018-03-03T02:46:02.280Z,54.60
2018-03-03T02:47:07.787Z,53.00
2018-03-03T02:48:13.296Z,52.60
2018-03-03T02:49:19.812Z,52.50
2018-03-03T02:50:24.326Z,52.90
2018-03-03T02:51:29.794Z,53.70
2018-03-03T02:52:35.309Z,52.10
2018-03-03T02:53:40.797Z,53.20
2018-03-03T02:54:46.310Z,51.70
2018-03-03T02:55:52.817Z,54.90
2018-03-03T02:56:57.308Z,53.70
2018-03-03T02:58:02.878Z,51.70
2018-03-03T02:59:08.304Z,52.90
2018-03-03T03:00:13.823Z,54.60
2018-03-03T03:01:19.322Z,54.10
2018-03-03T03:02:25.866Z,53.20
2018-03-03T03:03:30.365Z,55.10
2018-03-03T03:04:35.833Z,53.00
2018-03-03T03:05:41.330Z,54.00
2018-03-03T03:06:46.809Z,55.10
2018-03-03T03:07:52.327Z,54.10
2018-03-03T03:08:58.838Z,54.20
2018-03-03T03:10:03.338Z,53.70
2018-03-03T03:11:08.829Z,54.60
2018-03-03T03:12:14.337Z,54.40
2018-03-03T03:13:19.846Z,54.80
2018-03-03T03:14:25.389Z,55.10
2018-03-03T03:15:31.862Z,54.40
2018-03-03T03:16:36.404Z,53.70
2018-03-03T03:17:41.851Z,55.40
2018-03-03T03:18:47.357Z,54.90
2018-03-03T03:19:52.849Z,52.70
2018-03-03T03:20:58.360Z,54.10
2018-03-03T03:22:04.864Z,52.50
2018-03-03T03:23:09.360Z,53.70
2018-03-03T03:24:14.866Z,54.60
2018-03-03T03:25:20.365Z,53.10
2018-03-03T03:26:25.871Z,54.00
2018-03-03T03:27:31.373Z,54.30
2018-03-03T03:28:37.876Z,52.30
2018-03-03T03:29:42.372Z,51.20
2018-03-03T03:30:47.879Z,51.60
2018-03-03T03:31:53.372Z,52.80
2018-03-03T03:32:58.880Z,52.40
2018-03-03T03:34:04.382Z,51.90
2018-03-03T03:35:10.899Z,52.20
2018-03-03T03:36:15.384Z,53.70
2018-03-03T03:37:20.906Z,53.50
2018-03-03T03:38:26.388Z,52.50
2018-03-03T03:39:31.889Z,53.40
2018-03-03T03:40:37.388Z,52.60
2018-03-03T03:41:43.908Z,53.00
2018-03-03T03:42:48.407Z,51.50
2018-03-03T03:43:53.894Z,53.00
2018-03-03T03:44:59.402Z,52.60
2018-03-03T03:46:04.908Z,53.80
2018-03-03T03:47:10.404Z,52.90
2018-03-03T03:48:16.931Z,52.50
2018-03-03T03:49:21.412Z,53.30
2018-03-03T03:50:26.914Z,53.90
2018-03-03T03:51:32.408Z,52.60
2018-03-03T03:52:37.913Z,52.50
2018-03-03T03:53:43.421Z,52.90
2018-03-03T03:54:49.943Z,54.30
2018-03-03T03:55:54.426Z,54.50
2018-03-03T03:56:59.926Z,54.50
2018-03-03T03:58:05.425Z,54.40
2018-03-03T03:59:10.923Z,54.00
2018-03-03T04:00:16.439Z,53.30
2018-03-03T04:01:22.941Z,54.30
2018-03-03T04:02:27.478Z,53.90
2018-03-03T04:03:32.934Z,52.60
2018-03-03T04:04:38.437Z,54.50
2018-03-03T04:05:43.949Z,54.50
2018-03-03T04:06:49.437Z,54.90
2018-03-03T04:07:55.950Z,54.00
2018-03-03T04:09:00.448Z,54.80
2018-03-03T04:10:05.948Z,56.10
2018-03-03T04:11:11.453Z,56.70
2018-03-03T04:12:16.952Z,57.20
2018-03-03T04:13:22.464Z,56.70
2018-03-03T04:14:28.978Z,55.60
2018-03-03T04:15:33.456Z,53.90
2018-03-03T04:16:38.964Z,54.30
2018-03-03T04:17:44.463Z,53.90
2018-03-03T04:18:49.963Z,55.60
2018-03-03T04:19:55.470Z,54.60
2018-03-03T04:21:01.975Z,55.20
2018-03-03T04:22:06.475Z,54.50
2018-03-03T04:23:11.986Z,54.70
2018-03-03T04:24:17.479Z,55.40
2018-03-03T04:25:22.976Z,55.80
2018-03-03T04:26:28.472Z,56.50
2018-03-03T04:27:34.995Z,56.50
2018-03-03T04:28:39.481Z,54.80
2018-03-03T04:29:44.987Z,54.20
2018-03-03T04:30:50.489Z,54.30
2018-03-03T04:31:55.986Z,55.00
2018-03-03T04:33:01.491Z,54.10
2018-03-03T04:34:08.007Z,54.80
2018-03-03T04:35:12.502Z,54.90
2018-03-03T04:36:17.996Z,54.50
2018-03-03T04:37:23.499Z,56.40
2018-03-03T04:38:29.003Z,55.40
2018-03-03T04:39:34.501Z,55.80
2018-03-03T04:40:41.021Z,54.90
2018-03-03T04:41:45.512Z,55.40
2018-03-03T04:42:51.020Z,57.00
2018-03-03T04:43:56.513Z,54.70
2018-03-03T04:45:02.015Z,55.80
2018-03-03T04:46:07.519Z,54.50
2018-03-03T04:47:14.036Z,54.30
2018-03-03T04:48:18.521Z,55.70
2018-03-03T04:49:24.021Z,55.80
2018-03-03T04:50:29.530Z,55.40
2018-03-03T04:51:35.023Z,54.80
2018-03-03T04:52:40.530Z,55.70
2018-03-03T04:53:47.039Z,54.60
2018-03-03T04:54:51.536Z,53.30
2018-03-03T04:55:57.054Z,54.50
2018-03-03T04:57:02.538Z,54.10
2018-03-03T04:58:08.040Z,56.10
2018-03-03T04:59:13.624Z,54.80
2018-03-03T05:00:20.053Z,55.40
2018-03-03T05:01:24.574Z,55.80
2018-03-03T05:02:30.053Z,55.90
2018-03-03T05:03:35.547Z,56.40
2018-03-03T05:04:41.050Z,58.00
2018-03-03T05:05:46.552Z,57.20
2018-03-03T05:06:53.066Z,57.70
2018-03-03T05:07:57.552Z,57.60
2018-03-03T05:09:03.063Z,57.60
2018-03-03T05:10:08.562Z,58.00
2018-03-03T05:11:14.067Z,58.20
2018-03-03T05:12:19.568Z,57.90
2018-03-03T05:13:26.092Z,57.30
2018-03-03T05:14:30.565Z,57.30
2018-03-03T05:15:36.073Z,58.90
2018-03-03T05:16:41.579Z,56.70
2018-03-03T05:17:47.088Z,57.30
2018-03-03T05:18:52.584Z,58.10
2018-03-03T05:19:59.092Z,58.30
2018-03-03T05:21:03.584Z,58.40
2018-03-03T05:22:09.092Z,56.20
2018-03-03T05:23:14.587Z,55.80
2018-03-03T05:24:20.089Z,56.10
2018-03-03T05:25:25.593Z,57.60
2018-03-03T05:26:32.111Z,57.80
2018-03-03T05:27:36.604Z,57.10
2018-03-03T05:28:42.092Z,56.20
2018-03-03T05:29:47.595Z,58.20
2018-03-03T05:30:53.104Z,57.60
2018-03-03T05:31:58.599Z,57.30
2018-03-03T05:33:05.116Z,58.50
2018-03-03T05:34:09.613Z,56.80
2018-03-03T05:35:15.105Z,59.40
2018-03-03T05:36:20.612Z,55.50
2018-03-03T05:37:26.109Z,57.40
2018-03-03T05:38:31.623Z,58.40
2018-03-03T05:39:38.134Z,57.90
2018-03-03T05:40:42.620Z,57.90
2018-03-03T05:41:48.122Z,57.00
2018-03-03T05:42:53.619Z,58.80
2018-03-03T05:43:59.133Z,56.60
2018-03-03T05:45:04.630Z,56.70
2018-03-03T05:46:11.151Z,56.70
2018-03-03T05:47:15.641Z,55.20
2018-03-03T05:48:21.133Z,58.20
2018-03-03T05:49:26.728Z,57.40
2018-03-03T05:50:32.138Z,56.60
2018-03-03T05:51:37.638Z,57.60
2018-03-03T05:52:44.147Z,56.90
2018-03-03T05:53:48.642Z,56.80
2018-03-03T05:54:54.153Z,56.70
2018-03-03T05:55:59.648Z,57.10
2018-03-03T05:57:05.156Z,55.20
2018-03-03T05:58:10.694Z,57.40
2018-03-03T05:59:17.164Z,55.90
2018-03-03T06:00:21.665Z,55.50
2018-03-03T06:01:27.164Z,54.50
2018-03-03T06:02:32.656Z,56.80
2018-03-03T06:03:38.159Z,56.50
2018-03-03T06:04:43.666Z,56.80
2018-03-03T06:05:50.174Z,55.50
2018-03-03T06:06:54.667Z,56.10
2018-03-03T06:08:00.172Z,56.00
2018-03-03T06:09:05.673Z,56.90
2018-03-03T06:10:11.179Z,56.50
2018-03-03T06:11:16.704Z,54.50
2018-03-03T06:12:23.188Z,54.50
2018-03-03T06:13:27.683Z,56.90
2018-03-03T06:14:33.903Z,54.20
2018-03-03T06:15:38.691Z,55.30
2018-03-03T06:16:44.183Z,54.80
2018-03-03T06:17:49.693Z,54.10
2018-03-03T06:18:56.207Z,54.70
2018-03-03T06:20:00.697Z,53.20
2018-03-03T06:21:06.242Z,55.10
2018-03-03T06:22:11.702Z,55.20
2018-03-03T06:23:17.195Z,54.80
2018-03-03T06:24:22.710Z,53.60
2018-03-03T06:25:29.212Z,54.40
2018-03-03T06:26:33.708Z,54.90
2018-03-03T06:27:39.213Z,52.80
2018-03-03T06:28:44.722Z,53.40
2018-03-03T06:29:50.214Z,54.50
2018-03-03T06:30:55.718Z,53.20
2018-03-03T06:32:02.232Z,53.40
2018-03-03T06:33:06.724Z,54.70
2018-03-03T06:34:12.219Z,54.10
2018-03-03T06:35:17.731Z,53.50
2018-03-03T06:36:23.231Z,54.20
2018-03-03T06:37:28.741Z,53.30
2018-03-03T06:38:35.238Z,54.10
2018-03-03T06:39:39.735Z,54.00
2018-03-03T06:40:45.342Z,53.70
2018-03-03T06:41:50.749Z,54.50
2018-03-03T06:42:56.249Z,55.10
2018-03-03T06:44:01.748Z,54.10
2018-03-03T06:45:08.295Z,54.40
2018-03-03T06:46:12.826Z,54.60
2018-03-03T06:47:18.248Z,54.60
2018-03-03T06:48:23.765Z,53.10
2018-03-03T06:49:29.268Z,52.80
2018-03-03T06:50:34.756Z,53.60
2018-03-03T06:51:41.273Z,53.30
2018-03-03T06:52:45.765Z,53.40
2018-03-03T06:53:51.311Z,53.50
2018-03-03T06:54:56.765Z,52.90
2018-03-03T06:56:02.273Z,54.20
2018-03-03T06:57:07.782Z,53.00
2018-03-03T06:58:14.286Z,54.90
2018-03-03T06:59:18.781Z,53.40
2018-03-03T07:00:24.293Z,53.20
2018-03-03T07:01:29.779Z,54.50
2018-03-03T07:02:35.290Z,54.10
2018-03-03T07:03:40.790Z,53.60
2018-03-03T07:04:47.305Z,56.10
2018-03-03T07:05:51.786Z,54.00
2018-03-03T07:06:57.298Z,52.90
2018-03-03T07:08:02.803Z,53.60
2018-03-03T07:09:08.298Z,53.40
2018-03-03T07:10:13.825Z,56.10
2018-03-03T07:11:20.314Z,53.70
2018-03-03T07:12:24.812Z,52.60
2018-03-03T07:13:30.320Z,53.90
2018-03-03T07:14:35.814Z,54.10
2018-03-03T07:15:41.331Z,53.70
2018-03-03T07:16:46.819Z,52.90
2018-03-03T07:17:53.334Z,53.10
2018-03-03T07:18:57.825Z,54.10
2018-03-03T07:20:03.321Z,54.60
2018-03-03T07:21:08.830Z,55.40
2018-03-03T07:22:14.330Z,53.60
2018-03-03T07:23:19.839Z,55.60
2018-03-03T07:24:26.356Z,55.30
2018-03-03T07:25:30.835Z,54.80
2018-03-03T07:26:36.357Z,55.10
2018-03-03T07:27:41.852Z,54.00
2018-03-03T07:28:47.380Z,53.40
2018-03-03T07:29:52.847Z,54.00
2018-03-03T07:30:59.370Z,53.90
2018-03-03T07:32:03.854Z,54.60
2018-03-03T07:33:09.361Z,54.00
2018-03-03T07:34:14.863Z,54.40
2018-03-03T07:35:20.379Z,53.50
2018-03-03T07:36:25.866Z,52.90
2018-03-03T07:37:32.380Z,53.40
2018-03-03T07:38:36.886Z,53.40
2018-03-03T07:39:42.436Z,52.90
2018-03-03T07:40:47.888Z,54.20
2018-03-03T07:41:53.389Z,53.20
2018-03-03T07:42:58.894Z,53.00
2018-03-03T07:44:05.402Z,52.10
2018-03-03T07:45:09.897Z,51.70
2018-03-03T07:46:15.397Z,52.70
2018-03-03T07:47:20.896Z,52.10
2018-03-03T07:48:26.408Z,53.10
2018-03-03T07:49:31.906Z,53.60
2018-03-03T07:50:38.419Z,51.70
2018-03-03T07:51:42.909Z,51.70
2018-03-03T07:52:48.421Z,52.70
2018-03-03T07:53:53.912Z,54.00
2018-03-03T07:54:59.424Z,53.60
2018-03-03T07:56:04.934Z,54.20
2018-03-03T07:57:11.440Z,52.80
2018-03-03T07:58:15.939Z,51.70
2018-03-03T07:59:21.433Z,53.90
2018-03-03T08:00:26.940Z,53.50
2018-03-03T08:01:32.445Z,53.50
2018-03-03T08:02:37.957Z,53.10
2018-03-03T08:03:44.453Z,53.50
2018-03-03T08:04:48.949Z,53.20
2018-03-03T08:05:54.459Z,53.70
2018-03-03T08:06:59.961Z,53.70
2018-03-03T08:08:05.476Z,53.00
2018-03-03T08:09:10.967Z,52.20
2018-03-03T08:10:17.491Z,53.10
2018-03-03T08:11:21.975Z,54.60
2018-03-03T08:12:27.471Z,54.00
2018-03-03T08:13:32.973Z,53.30
2018-03-03T08:14:38.481Z,52.80
2018-03-03T08:15:43.998Z,52.30
2018-03-03T08:16:50.494Z,55.40
2018-03-03T08:17:54.994Z,53.70
2018-03-03T08:19:00.488Z,54.80
2018-03-03T08:20:05.998Z,53.60
2018-03-03T08:21:11.501Z,54.50
2018-03-03T08:22:17.007Z,53.50
2018-03-03T08:23:23.516Z,54.70
2018-03-03T08:24:28.011Z,52.80
2018-03-03T08:25:33.515Z,53.70
2018-03-03T08:26:39.023Z,52.40
2018-03-03T08:27:44.528Z,53.00
2018-03-03T08:28:50.056Z,54.10
2018-03-03T08:29:56.539Z,53.10
2018-03-03T08:31:01.042Z,54.40
2018-03-03T08:32:06.536Z,53.30
2018-03-03T08:33:12.040Z,52.90
2018-03-03T08:34:17.543Z,53.90
2018-03-03T08:35:23.047Z,54.60
2018-03-03T08:36:29.563Z,54.20
2018-03-03T08:37:34.061Z,52.90
2018-03-03T08:38:39.558Z,53.40
2018-03-03T08:39:45.058Z,52.90
2018-03-03T08:40:50.568Z,52.40
2018-03-03T08:41:56.087Z,51.90
2018-03-03T08:43:02.582Z,52.70
2018-03-03T08:44:07.092Z,51.90
2018-03-03T08:45:12.581Z,54.60
2018-03-03T08:46:18.077Z,53.40
2018-03-03T08:47:23.589Z,53.00
2018-03-03T08:48:29.104Z,53.00
2018-03-03T08:49:35.601Z,53.30
2018-03-03T08:50:40.092Z,52.30
2018-03-03T08:51:45.600Z,52.60
2018-03-03T08:52:51.111Z,52.70
2018-03-03T08:53:56.603Z,51.60
2018-03-03T08:55:02.109Z,52.70
2018-03-03T08:56:08.634Z,53.00
2018-03-03T08:57:13.124Z,51.90
2018-03-03T08:58:18.619Z,51.60
2018-03-03T08:59:24.132Z,51.80
2018-03-03T09:00:29.632Z,51.80
2018-03-03T09:01:35.127Z,50.20
2018-03-03T09:02:41.669Z,51.00
2018-03-03T09:03:46.135Z,52.20
2018-03-03T09:04:51.645Z,51.20
2018-03-03T09:05:57.151Z,51.80
2018-03-03T09:07:02.654Z,53.10
2018-03-03T09:08:08.149Z,54.30
2018-03-03T09:09:14.675Z,51.10
2018-03-03T09:10:19.163Z,52.20
2018-03-03T09:11:24.683Z,52.30
2018-03-03T09:12:30.180Z,50.80
2018-03-03T09:13:35.672Z,52.50
2018-03-03T09:14:41.175Z,50.60
2018-03-03T09:15:47.698Z,51.80
2018-03-03T09:16:52.182Z,51.40
2018-03-03T09:17:57.689Z,51.30
2018-03-03T09:19:03.193Z,52.70
2018-03-03T09:20:08.691Z,51.50
2018-03-03T09:21:14.191Z,52.70
2018-03-03T09:22:20.708Z,50.70
2018-03-03T09:23:25.202Z,52.00
2018-03-03T09:24:30.708Z,50.70
2018-03-03T09:25:36.215Z,50.70
2018-03-03T09:26:41.726Z,50.80
2018-03-03T09:27:47.231Z,50.90
2018-03-03T09:28:53.736Z,50.60
2018-03-03T09:29:58.226Z,51.30
2018-03-03T09:31:03.749Z,51.20
2018-03-03T09:32:09.242Z,50.60
2018-03-03T09:33:14.736Z,52.80
2018-03-03T09:34:20.237Z,51.60
2018-03-03T09:35:26.760Z,51.20
2018-03-03T09:36:31.247Z,52.30
2018-03-03T09:37:36.774Z,51.70
2018-03-03T09:38:42.254Z,50.80
2018-03-03T09:39:47.759Z,52.00
2018-03-03T09:40:53.278Z,51.70
2018-03-03T09:41:59.778Z,50.70
2018-03-03T09:43:04.279Z,51.60
2018-03-03T09:44:09.776Z,50.30
2018-03-03T09:45:15.278Z,51.30
2018-03-03T09:46:20.784Z,50.40
2018-03-03T09:47:26.291Z,50.60
2018-03-03T09:48:32.802Z,51.20
2018-03-03T09:49:37.295Z,50.20
2018-03-03T09:50:42.806Z,51.10
2018-03-03T09:51:48.303Z,50.00
2018-03-03T09:52:53.808Z,52.40
2018-03-03T09:53:59.318Z,51.30
2018-03-03T09:55:05.828Z,49.30
2018-03-03T09:56:10.326Z,50.70
2018-03-03T09:57:15.832Z,51.00
2018-03-03T09:58:21.318Z,50.90
2018-03-03T09:59:26.835Z,50.80
2018-03-03T10:00:32.338Z,50.10
2018-03-03T10:01:43.360Z,50.70
2018-03-03T10:02:43.345Z,49.60
2018-03-03T10:03:48.846Z,51.20
2018-03-03T10:04:54.346Z,50.60
2018-03-03T10:05:59.852Z,51.40
2018-03-03T10:07:05.369Z,51.50
2018-03-03T10:08:11.877Z,51.30
2018-03-03T10:09:16.364Z,50.90
2018-03-03T10:10:21.869Z,51.90
2018-03-03T10:11:27.370Z,52.90
2018-03-03T10:12:32.880Z,52.40
2018-03-03T10:13:38.441Z,51.60
2018-03-03T10:14:44.914Z,50.80
2018-03-03T10:15:49.411Z,52.90
2018-03-03T10:16:54.895Z,50.70
2018-03-03T10:18:00.416Z,52.10
2018-03-03T10:19:05.902Z,51.20
2018-03-03T10:20:11.412Z,50.00
2018-03-03T10:21:17.932Z,53.20
2018-03-03T10:22:22.417Z,51.80
2018-03-03T10:23:27.921Z,51.60
2018-03-03T10:24:33.420Z,50.30
2018-03-03T10:25:38.929Z,51.70
2018-03-03T10:26:44.430Z,51.90
2018-03-03T10:27:50.967Z,51.30
2018-03-03T10:28:55.442Z,51.20
2018-03-03T10:30:00.943Z,49.50
2018-03-03T10:31:06.449Z,51.40
2018-03-03T10:32:11.950Z,54.10
2018-03-03T10:33:17.475Z,52.80
2018-03-03T10:34:23.978Z,51.00
2018-03-03T10:35:28.468Z,51.50
2018-03-03T10:36:33.980Z,51.80
2018-03-03T10:37:39.472Z,50.80
2018-03-03T10:38:44.981Z,52.40
2018-03-03T10:39:50.492Z,51.00
2018-03-03T10:40:56.997Z,51.40
2018-03-03T10:42:01.492Z,51.90
2018-03-03T10:43:07.138Z,49.60
2018-03-03T10:44:12.502Z,51.30
2018-03-03T10:45:18.005Z,52.70
2018-03-03T10:46:23.527Z,51.10
2018-03-03T10:47:30.044Z,50.00
2018-03-03T10:48:34.518Z,51.60
2018-03-03T10:49:40.094Z,51.10
2018-03-03T10:50:45.564Z,51.70
2018-03-03T10:51:51.031Z,53.70
2018-03-03T10:52:56.532Z,50.00
2018-03-03T10:54:03.050Z,50.60
2018-03-03T10:55:07.554Z,50.90
2018-03-03T10:56:13.055Z,50.90
2018-03-03T10:57:18.560Z,49.60
2018-03-03T10:58:24.062Z,49.60
2018-03-03T10:59:29.563Z,51.50
2018-03-03T11:00:36.073Z,50.70
2018-03-03T11:01:40.574Z,51.10
2018-03-03T11:02:46.075Z,50.50
2018-03-03T11:03:51.579Z,48.90
2018-03-03T11:04:57.084Z,50.20
2018-03-03T11:06:02.587Z,47.90
2018-03-03T11:08:13.618Z,48.30
2018-03-03T11:09:19.096Z,49.30
2018-03-03T11:10:24.608Z,49.40
2018-03-03T11:11:30.106Z,48.90
2018-03-03T11:12:35.612Z,49.90
2018-03-03T11:13:42.124Z,49.20
2018-03-03T11:14:46.616Z,48.60
2018-03-03T11:15:52.127Z,48.80
2018-03-03T11:16:57.637Z,48.90
2018-03-03T11:18:03.225Z,49.60
2018-03-03T11:19:08.657Z,49.70
2018-03-03T11:20:15.243Z,49.20
2018-03-03T11:21:19.717Z,50.20
2018-03-03T11:22:25.209Z,50.60
2018-03-03T11:23:30.667Z,50.60
2018-03-03T11:24:36.174Z,50.30
2018-03-03T11:25:41.749Z,49.40
2018-03-03T11:26:48.243Z,48.90
2018-03-03T11:27:52.689Z,50.90
2018-03-03T11:28:58.195Z,49.30
2018-03-03T11:30:03.698Z,49.20
2018-03-03T11:31:09.193Z,48.00
2018-03-03T11:32:14.692Z,49.30
2018-03-03T11:33:21.244Z,51.20
2018-03-03T11:34:25.703Z,50.10
2018-03-03T11:35:31.201Z,49.80
2018-03-03T11:36:36.710Z,48.30
2018-03-03T11:37:42.228Z,49.00
2018-03-03T11:38:47.727Z,49.50
2018-03-03T11:39:54.489Z,49.90
2018-03-03T11:40:58.731Z,48.90
2018-03-03T11:42:04.519Z,49.60
2018-03-03T11:43:09.922Z,49.90
2018-03-03T11:44:15.384Z,49.80
2018-03-03T11:45:20.783Z,50.20
2018-03-03T11:46:27.264Z,51.00
2018-03-03T11:47:31.730Z,50.00
2018-03-03T11:48:37.267Z,48.60
2018-03-03T11:49:42.821Z,49.70
2018-03-03T11:50:48.279Z,48.90
2018-03-03T11:51:53.774Z,48.10
2018-03-03T11:53:00.296Z,50.80
2018-03-03T11:54:04.786Z,49.40
2018-03-03T11:55:10.292Z,50.10
2018-03-03T11:56:15.792Z,49.90
2018-03-03T11:57:21.300Z,49.40
2018-03-03T11:58:26.800Z,49.40
2018-03-03T11:59:33.328Z,49.10
2018-03-03T12:00:37.820Z,48.10
2018-03-03T12:01:43.363Z,49.60
2018-03-03T12:02:48.857Z,50.60
2018-03-03T12:03:54.340Z,49.30
2018-03-03T12:04:59.834Z,48.50
2018-03-03T12:06:06.347Z,48.50
2018-03-03T12:07:10.842Z,49.70
2018-03-03T12:08:16.364Z,48.30
2018-03-03T12:09:21.862Z,49.40
2018-03-03T12:10:27.356Z,49.80
2018-03-03T12:11:32.869Z,49.10
2018-03-03T12:12:39.385Z,48.90
2018-03-03T12:13:43.878Z,49.20
2018-03-03T12:14:49.392Z,50.20
2018-03-03T12:15:54.889Z,48.70
2018-03-03T12:17:00.392Z,48.60
2018-03-03T12:18:05.892Z,47.50
2018-03-03T12:19:12.412Z,48.40
2018-03-03T12:20:16.920Z,49.30
2018-03-03T12:21:22.410Z,49.30
2018-03-03T12:22:27.920Z,48.40
2018-03-03T12:23:33.422Z,49.90
2018-03-03T12:24:38.933Z,49.80
2018-03-03T12:25:45.442Z,50.10
2018-03-03T12:26:49.942Z,49.20
2018-03-03T12:27:55.447Z,49.20
2018-03-03T12:29:00.976Z,48.80
2018-03-03T12:30:06.455Z,48.60
2018-03-03T12:31:11.952Z,48.10
2018-03-03T12:32:18.472Z,50.20
2018-03-03T12:33:22.973Z,48.10
2018-03-03T12:34:28.470Z,47.80
2018-03-03T12:35:34.086Z,49.70
2018-03-03T12:36:39.486Z,50.80
2018-03-03T12:37:44.984Z,49.40
2018-03-03T12:38:51.504Z,49.10
2018-03-03T12:39:56.013Z,48.30
2018-03-03T12:41:01.499Z,48.30
2018-03-03T12:42:07.011Z,49.00
2018-03-03T12:43:12.509Z,50.20
2018-03-03T12:44:18.033Z,51.30
2018-03-03T12:45:24.543Z,49.50
2018-03-03T12:46:29.113Z,49.20
2018-03-03T12:47:34.561Z,46.80
2018-03-03T12:48:40.042Z,48.80
2018-03-03T12:49:45.548Z,49.40
2018-03-03T12:50:51.065Z,48.80
2018-03-03T12:51:57.576Z,47.90
2018-03-03T12:53:02.105Z,48.90
2018-03-03T12:54:07.579Z,49.90
2018-03-03T12:55:13.075Z,50.60
2018-03-03T12:56:18.588Z,49.00
2018-03-03T12:57:24.111Z,49.30
2018-03-03T12:58:30.618Z,49.60
2018-03-03T12:59:35.088Z,50.60
2018-03-03T13:00:40.591Z,49.20
2018-03-03T13:01:46.112Z,48.60
2018-03-03T13:02:51.602Z,48.80
2018-03-03T13:03:57.113Z,48.70
2018-03-03T13:05:03.628Z,49.20
2018-03-03T13:06:08.132Z,49.60
2018-03-03T13:07:13.630Z,50.10
2018-03-03T13:08:19.132Z,47.50
2018-03-03T13:09:24.618Z,51.10
2018-03-03T13:10:30.148Z,50.60
2018-03-03T13:11:36.669Z,49.30
2018-03-03T13:12:41.196Z,50.10
2018-03-03T13:13:46.663Z,49.70
2018-03-03T13:14:52.165Z,49.60
2018-03-03T13:15:57.670Z,50.60
2018-03-03T13:17:03.210Z,48.90
2018-03-03T13:18:09.693Z,50.30
2018-03-03T13:19:14.224Z,49.10
2018-03-03T13:20:19.689Z,49.10
2018-03-03T13:21:25.201Z,49.40
2018-03-03T13:22:30.736Z,50.20
2018-03-03T13:23:36.206Z,49.70
2018-03-03T13:24:42.719Z,51.50
2018-03-03T13:25:47.213Z,51.10
2018-03-03T13:26:52.718Z,50.50
2018-03-03T13:27:58.250Z,50.40
2018-03-03T13:29:03.746Z,51.40
2018-03-03T13:30:09.253Z,49.10
2018-03-03T13:31:15.835Z,50.50
2018-03-03T13:32:20.361Z,50.90
2018-03-03T13:33:25.763Z,51.50
2018-03-03T13:34:31.276Z,50.40
2018-03-03T13:35:36.768Z,50.80
2018-03-03T13:36:42.305Z,51.00
2018-03-03T13:37:48.791Z,50.30
2018-03-03T13:38:53.313Z,49.70
2018-03-03T13:39:58.795Z,51.50
2018-03-03T13:41:04.324Z,51.60
2018-03-03T13:42:09.799Z,50.10
2018-03-03T13:43:15.301Z,51.00
2018-03-03T13:44:21.827Z,51.00
2018-03-03T13:45:26.334Z,50.70
2018-03-03T13:46:31.864Z,51.70
2018-03-03T13:47:37.391Z,50.80
2018-03-03T13:48:42.870Z,50.30
2018-03-03T13:49:48.385Z,51.30
2018-03-03T13:50:54.874Z,50.10
2018-03-03T13:51:59.365Z,50.30
2018-03-03T13:53:04.845Z,50.20
2018-03-03T13:54:10.359Z,50.40
2018-03-03T13:55:15.889Z,50.60
2018-03-03T13:56:21.442Z,52.50
2018-03-03T13:57:27.852Z,50.60
2018-03-03T13:58:32.396Z,51.10
2018-03-03T13:59:37.879Z,50.30
2018-03-03T14:00:43.410Z,50.90
2018-03-03T14:01:48.915Z,51.40
2018-03-03T14:02:54.408Z,51.60
2018-03-03T14:04:00.928Z,52.70
2018-03-03T14:05:05.439Z,51.90